sensor_id;sensor_type;location;lat;lon;timestamp;pressure;altitude;pressure_sealevel;temperature;humidity
78990;BME280;68390;52.130;21.218;2023-08-06T00:01:12;99399.50;;;18.67;100.00
78990;BME280;68390;52.130;21.218;2023-08-06T00:03:37;99396.97;;;18.65;100.00
78990;BME280;68390;52.130;21.218;2023-08-06T00:06:05;99397.81;;;18.66;100.00
78990;BME280;68390;52.130;21.218;2023-08-06T00:08:30;99393.09;;;18.66;100.00
78990;BME280;68390;52.130;21.218;2023-08-06T00:10:55;99390.31;;;18.66;100.00
78990;BME280;68390;52.130;21.218;2023-08-06T00:13:21;99381.72;;;18.68;100.00
78990;BME280;68390;52.130;21.218;2023-08-06T00:15:46;99370.59;;;18.68;100.00
78990;BME280;68390;52.130;21.218;2023-08-06T00:18:12;99372.53;;;18.67;100.00
78990;BME280;68390;52.130;21.218;2023-08-06T00:20:40;99375.31;;;18.67;100.00
78990;BME280;68390;52.130;21.218;2023-08-06T00:23:07;99378.94;;;18.68;100.00
78990;BME280;68390;52.130;21.218;2023-08-06T00:25:32;99379.19;;;18.66;100.00
78990;BME280;68390;52.130;21.218;2023-08-06T00:27:57;99375.66;;;18.71;100.00
78990;BME280;68390;52.130;21.218;2023-08-06T00:30:23;99379.50;;;18.70;100.00
78990;BME280;68390;52.130;21.218;2023-08-06T00:32:48;99391.25;;;18.72;100.00
78990;BME280;68390;52.130;21.218;2023-08-06T00:35:14;99390.16;;;18.73;100.00
78990;BME280;68390;52.130;21.218;2023-08-06T00:37:39;99386.75;;;18.71;100.00
78990;BME280;68390;52.130;21.218;2023-08-06T00:40:06;99386.75;;;18.71;100.00
78990;BME280;68390;52.130;21.218;2023-08-06T00:42:32;99369.75;;;18.67;100.00
78990;BME280;68390;52.130;21.218;2023-08-06T00:44:57;99365.03;;;18.68;100.00
78990;BME280;68390;52.130;21.218;2023-08-06T00:47:23;99370.59;;;18.68;100.00
78990;BME280;68390;52.130;21.218;2023-08-06T00:49:48;99378.09;;;18.67;100.00
78990;BME280;68390;52.130;21.218;2023-08-06T00:52:14;99380.03;;;18.67;100.00
78990;BME280;68390;52.130;21.218;2023-08-06T00:54:39;99356.94;;;18.66;100.00
78990;BME280;68390;52.130;21.218;2023-08-06T00:57:07;99348.84;;;18.65;100.00
78990;BME280;68390;52.130;21.218;2023-08-06T00:59:32;99358.88;;;18.66;100.00
78990;BME280;68390;52.130;21.218;2023-08-06T01:01:58;99344.38;;;18.64;100.00
78990;BME280;68390;52.130;21.218;2023-08-06T01:04:23;99340.13;;;18.61;100.00
78990;BME280;68390;52.130;21.218;2023-08-06T01:07:05;99337.84;;;18.58;100.00
78990;BME280;68390;52.130;21.218;2023-08-06T01:09:57;99331.78;;;18.61;100.00
78990;BME280;68390;52.130;21.218;2023-08-06T01:15:29;99314.41;;;18.54;100.00
78990;BME280;68390;52.130;21.218;2023-08-06T01:17:55;99315.50;;;18.53;100.00
78990;BME280;68390;52.130;21.218;2023-08-06T01:20:21;99298.81;;;18.53;100.00
78990;BME280;68390;52.130;21.218;2023-08-06T01:22:46;99289.25;;;18.49;100.00
78990;BME280;68390;52.130;21.218;2023-08-06T01:25:15;99277.91;;;18.51;100.00
78990;BME280;68390;52.130;21.218;2023-08-06T01:27:47;99268.72;;;18.50;100.00
78990;BME280;68390;52.130;21.218;2023-08-06T01:30:17;99254.81;;;18.50;100.00
78990;BME280;68390;52.130;21.218;2023-08-06T01:32:49;99245.63;;;18.50;100.00
78990;BME280;68390;52.130;21.218;2023-08-06T01:35:17;99235.03;;;18.47;100.00
78990;BME280;68390;52.130;21.218;2023-08-06T01:37:44;99228.88;;;18.45;100.00
78990;BME280;68390;52.130;21.218;2023-08-06T01:40:11;99217.50;;;18.46;100.00
78990;BME280;68390;52.130;21.218;2023-08-06T01:42:37;99201.06;;;18.45;100.00
78990;BME280;68390;52.130;21.218;2023-08-06T01:45:03;99196.59;;;18.44;100.00
78990;BME280;68390;52.130;21.218;2023-08-06T01:47:29;99198.78;;;18.42;100.00
78990;BME280;68390;52.130;21.218;2023-08-06T01:49:54;99197.94;;;18.41;100.00
78990;BME280;68390;52.130;21.218;2023-08-06T01:52:19;99190.69;;;18.40;100.00
78990;BME280;68390;52.130;21.218;2023-08-06T01:54:45;99189.84;;;18.40;100.00
78990;BME280;68390;52.130;21.218;2023-08-06T01:57:10;99182.94;;;18.42;100.00
78990;BME280;68390;52.130;21.218;2023-08-06T01:59:35;99182.94;;;18.42;100.00
78990;BME280;68390;52.130;21.218;2023-08-06T02:02:01;99175.44;;;18.43;100.00
78990;BME280;68390;52.130;21.218;2023-08-06T02:04:26;99190.94;;;18.39;100.00
78990;BME280;68390;52.130;21.218;2023-08-06T02:06:51;99174.84;;;18.41;100.00
78990;BME280;68390;52.130;21.218;2023-08-06T02:09:17;99171.81;;;18.42;100.00
78990;BME280;68390;52.130;21.218;2023-08-06T02:11:42;99171.59;;;18.44;100.00
78990;BME280;68390;52.130;21.218;2023-08-06T02:14:07;99163.25;;;18.44;100.00
78990;BME280;68390;52.130;21.218;2023-08-06T02:16:33;99156.00;;;18.43;100.00
78990;BME280;68390;52.130;21.218;2023-08-06T02:18:58;99156.84;;;18.43;100.00
78990;BME280;68390;52.130;21.218;2023-08-06T02:21:23;99141.00;;;18.44;100.00
78990;BME280;68390;52.130;21.218;2023-08-06T02:23:49;99140.41;;;18.42;100.00
78990;BME280;68390;52.130;21.218;2023-08-06T02:26:14;99146.56;;;18.44;100.00
78990;BME280;68390;52.130;21.218;2023-08-06T02:28:39;99146.81;;;18.42;100.00
78990;BME280;68390;52.130;21.218;2023-08-06T02:31:05;99146.56;;;18.44;100.00
78990;BME280;68390;52.130;21.218;2023-08-06T02:33:31;99150.19;;;18.44;100.00
78990;BME280;68390;52.130;21.218;2023-08-06T02:36:03;99145.22;;;18.46;100.00
78990;BME280;68390;52.130;21.218;2023-08-06T02:38:30;99147.75;;;18.48;100.00
78990;BME280;68390;52.130;21.218;2023-08-06T02:40:55;99150.78;;;18.46;100.00
78990;BME280;68390;52.130;21.218;2023-08-06T02:43:21;99146.06;;;18.47;100.00
78990;BME280;68390;52.130;21.218;2023-08-06T02:45:46;99144.69;;;18.49;100.00
78990;BME280;68390;52.130;21.218;2023-08-06T02:48:11;99137.19;;;18.50;100.00
78990;BME280;68390;52.130;21.218;2023-08-06T02:50:38;99129.72;;;18.50;100.00
78990;BME280;68390;52.130;21.218;2023-08-06T02:53:04;99125.84;;;18.51;100.00
78990;BME280;68390;52.130;21.218;2023-08-06T02:55:30;99118.34;;;18.52;100.00
78990;BME280;68390;52.130;21.218;2023-08-06T02:57:55;99118.94;;;18.54;100.00
78990;BME280;68390;52.130;21.218;2023-08-06T03:00:21;99117.25;;;18.53;100.00
78990;BME280;68390;52.130;21.218;2023-08-06T03:02:46;99115.91;;;18.55;100.00
78990;BME280;68390;52.130;21.218;2023-08-06T03:05:11;99106.72;;;18.55;100.00
78990;BME280;68390;52.130;21.218;2023-08-06T03:07:37;99101.75;;;18.57;100.00
78990;BME280;68390;52.130;21.218;2023-08-06T03:10:03;99097.91;;;18.58;100.00
78990;BME280;68390;52.130;21.218;2023-08-06T03:12:28;99084.22;;;18.56;100.00
78990;BME280;68390;52.130;21.218;2023-08-06T03:14:53;99079.00;;;18.60;100.00
78990;BME280;68390;52.130;21.218;2023-08-06T03:17:19;99071.50;;;18.60;100.00
78990;BME280;68390;52.130;21.218;2023-08-06T03:20:05;99061.22;;;18.61;100.00
78990;BME280;68390;52.130;21.218;2023-08-06T03:22:30;99057.59;;;18.60;100.00
78990;BME280;68390;52.130;21.218;2023-08-06T03:24:55;99053.47;;;18.63;100.00
78990;BME280;68390;52.130;21.218;2023-08-06T03:27:21;99046.81;;;18.64;100.00
78990;BME280;68390;52.130;21.218;2023-08-06T03:29:49;99049.59;;;18.64;100.00
78990;BME280;68390;52.130;21.218;2023-08-06T03:32:15;99035.44;;;18.65;100.00
78990;BME280;68390;52.130;21.218;2023-08-06T03:34:40;99041.00;;;18.65;100.00
78990;BME280;68390;52.130;21.218;2023-08-06T03:37:05;99029.03;;;18.65;100.00
78990;BME280;68390;52.130;21.218;2023-08-06T03:39:31;99029.09;;;18.70;100.00
78990;BME280;68390;52.130;21.218;2023-08-06T03:41:56;99009.91;;;18.68;100.00
78990;BME280;68390;52.130;21.218;2023-08-06T03:44:21;99002.13;;;18.70;100.00
78990;BME280;68390;52.130;21.218;2023-08-06T03:46:47;99009.63;;;18.70;100.00
78990;BME280;68390;52.130;21.218;2023-08-06T03:49:12;98991.84;;;18.71;100.00
78990;BME280;68390;52.130;21.218;2023-08-06T03:51:37;98989.66;;;18.73;100.00
78990;BME280;68390;52.130;21.218;2023-08-06T03:54:03;98990.25;;;18.75;100.00
78990;BME280;68390;52.130;21.218;2023-08-06T03:56:28;98991.94;;;18.76;100.00
78990;BME280;68390;52.130;21.218;2023-08-06T03:58:54;98988.63;;;18.79;100.00
78990;BME280;68390;52.130;21.218;2023-08-06T04:01:19;98977.25;;;18.81;100.00
78990;BME280;68390;52.130;21.218;2023-08-06T04:03:44;98969.75;;;18.81;100.00
78990;BME280;68390;52.130;21.218;2023-08-06T04:06:10;98974.78;;;18.84;100.00
78990;BME280;68390;52.130;21.218;2023-08-06T04:08:35;98965.09;;;18.87;100.00
78990;BME280;68390;52.130;21.218;2023-08-06T04:11:01;98968.97;;;18.86;100.00
78990;BME280;68390;52.130;21.218;2023-08-06T04:13:26;98956.75;;;18.87;100.00
78990;BME280;68390;52.130;21.218;2023-08-06T04:15:51;98949.84;;;18.89;100.00
78990;BME280;68390;52.130;21.218;2023-08-06T04:18:17;98941.75;;;18.88;100.00
78990;BME280;68390;52.130;21.218;2023-08-06T04:20:43;98948.78;;;18.95;100.00
78990;BME280;68390;52.130;21.218;2023-08-06T04:23:10;98945.75;;;18.97;100.00
78990;BME280;68390;52.130;21.218;2023-08-06T04:25:35;98941.03;;;18.97;100.00
78990;BME280;68390;52.130;21.218;2023-08-06T04:28:00;98933.78;;;18.96;100.00
78990;BME280;68390;52.130;21.218;2023-08-06T04:30:26;98934.91;;;19.00;100.00
78990;BME280;68390;52.130;21.218;2023-08-06T04:32:51;98936.84;;;19.00;100.00
78990;BME280;68390;52.130;21.218;2023-08-06T04:35:16;98937.78;;;19.05;100.00
78990;BME280;68390;52.130;21.218;2023-08-06T04:37:42;98921.94;;;19.06;100.00
78990;BME280;68390;52.130;21.218;2023-08-06T04:40:08;98919.97;;;19.06;100.00
78990;BME280;68390;52.130;21.218;2023-08-06T04:42:33;98907.75;;;19.08;100.00
78990;BME280;68390;52.130;21.218;2023-08-06T04:44:58;98906.66;;;19.09;100.00
78990;BME280;68390;52.130;21.218;2023-08-06T04:47:24;98908.88;;;19.12;100.00
78990;BME280;68390;52.130;21.218;2023-08-06T04:49:51;98907.53;;;19.14;100.00
78990;BME280;68390;52.130;21.218;2023-08-06T04:52:16;98898.66;;;19.17;100.00
78990;BME280;68390;52.130;21.218;2023-08-06T04:54:43;98902.59;;;19.21;100.00
78990;BME280;68390;52.130;21.218;2023-08-06T04:57:08;98894.56;;;19.25;100.00
78990;BME280;68390;52.130;21.218;2023-08-06T04:59:34;98887.63;;;19.27;100.00
78990;BME280;68390;52.130;21.218;2023-08-06T05:01:59;98896.31;;;19.31;100.00
78990;BME280;68390;52.130;21.218;2023-08-06T05:04:24;98887.41;;;19.34;100.00
78990;BME280;68390;52.130;21.218;2023-08-06T05:06:50;98884.69;;;19.39;100.00
78990;BME280;68390;52.130;21.218;2023-08-06T05:09:15;98875.78;;;19.42;100.00
78990;BME280;68390;52.130;21.218;2023-08-06T05:11:40;98876.47;;;19.49;100.00
78990;BME280;68390;52.130;21.218;2023-08-06T05:14:06;98862.56;;;19.54;100.00
78990;BME280;68390;52.130;21.218;2023-08-06T05:16:31;98859.28;;;19.62;100.00
78990;BME280;68390;52.130;21.218;2023-08-06T05:18:56;98862.13;;;19.67;100.00
78990;BME280;68390;52.130;21.218;2023-08-06T05:21:22;98866.59;;;19.73;100.00
78990;BME280;68390;52.130;21.218;2023-08-06T05:23:47;98858.88;;;19.81;100.00
78990;BME280;68390;52.130;21.218;2023-08-06T05:26:12;98863.81;;;20.10;100.00
78990;BME280;68390;52.130;21.218;2023-08-06T05:28:39;98856.88;;;20.18;100.00
78990;BME280;68390;52.130;21.218;2023-08-06T05:31:06;98858.59;;;20.24;100.00
78990;BME280;68390;52.130;21.218;2023-08-06T05:33:32;98849.13;;;20.30;100.00
78990;BME280;68390;52.130;21.218;2023-08-06T05:35:58;98844.69;;;20.34;99.88
78990;BME280;68390;52.130;21.218;2023-08-06T05:38:23;98841.41;;;20.47;97.98
78990;BME280;68390;52.130;21.218;2023-08-06T05:40:49;98843.16;;;20.59;98.19
78990;BME280;68390;52.130;21.218;2023-08-06T05:43:14;98838.16;;;20.71;95.48
78990;BME280;68390;52.130;21.218;2023-08-06T05:45:44;98832.34;;;20.82;97.88
78990;BME280;68390;52.130;21.218;2023-08-06T05:48:10;98839.88;;;20.87;95.49
78990;BME280;68390;52.130;21.218;2023-08-06T05:50:35;98830.38;;;20.88;92.91
78990;BME280;68390;52.130;21.218;2023-08-06T05:53:01;98835.72;;;21.00;93.76
78990;BME280;68390;52.130;21.218;2023-08-06T05:55:26;98837.41;;;21.01;93.67
78990;BME280;68390;52.130;21.218;2023-08-06T05:57:51;98835.47;;;21.06;92.09
78990;BME280;68390;52.130;21.218;2023-08-06T06:00:17;98822.06;;;21.08;91.34
78990;BME280;68390;52.130;21.218;2023-08-06T06:02:43;98827.09;;;21.11;91.18
78990;BME280;68390;52.130;21.218;2023-08-06T06:05:09;98832.41;;;21.13;91.29
78990;BME280;68390;52.130;21.218;2023-08-06T06:07:34;98833.25;;;21.18;89.68
78990;BME280;68390;52.130;21.218;2023-08-06T06:10:00;98828.25;;;21.26;92.67
78990;BME280;68390;52.130;21.218;2023-08-06T06:12:25;98822.94;;;21.29;89.49
78990;BME280;68390;52.130;21.218;2023-08-06T06:14:51;98825.19;;;21.32;88.50
78990;BME280;68390;52.130;21.218;2023-08-06T06:17:16;98818.22;;;21.35;89.27
78990;BME280;68390;52.130;21.218;2023-08-06T06:19:42;98815.97;;;21.42;89.93
78990;BME280;68390;52.130;21.218;2023-08-06T06:22:07;98813.75;;;21.49;89.12
78990;BME280;68390;52.130;21.218;2023-08-06T06:24:32;98807.59;;;21.57;88.53
78990;BME280;68390;52.130;21.218;2023-08-06T06:26:58;98804.78;;;21.62;88.19
78990;BME280;68390;52.130;21.218;2023-08-06T06:29:23;98799.19;;;21.67;89.07
78990;BME280;68390;52.130;21.218;2023-08-06T06:31:49;98791.91;;;21.71;87.40
78990;BME280;68390;52.130;21.218;2023-08-06T06:34:14;98795.25;;;21.73;87.01
78990;BME280;68390;52.130;21.218;2023-08-06T06:36:40;98799.16;;;21.82;87.41
78990;BME280;68390;52.130;21.218;2023-08-06T06:39:05;98794.69;;;21.86;85.12
78990;BME280;68390;52.130;21.218;2023-08-06T06:41:30;98782.91;;;21.94;84.90
78990;BME280;68390;52.130;21.218;2023-08-06T06:43:58;98786.28;;;22.02;86.41
78990;BME280;68390;52.130;21.218;2023-08-06T06:46:23;98784.03;;;22.09;83.86
78990;BME280;68390;52.130;21.218;2023-08-06T06:48:48;98771.13;;;22.13;84.03
78990;BME280;68390;52.130;21.218;2023-08-06T06:51:14;98777.28;;;22.20;83.69
78990;BME280;68390;52.130;21.218;2023-08-06T06:53:39;98777.28;;;22.20;82.19
78990;BME280;68390;52.130;21.218;2023-08-06T06:56:05;98786.19;;;22.27;82.73
78990;BME280;68390;52.130;21.218;2023-08-06T06:58:31;98778.03;;;22.41;84.20
78990;BME280;68390;52.130;21.218;2023-08-06T07:00:57;98786.09;;;22.52;82.09
78990;BME280;68390;52.130;21.218;2023-08-06T07:03:23;98784.88;;;22.63;81.59
78990;BME280;68390;52.130;21.218;2023-08-06T07:05:49;98779.81;;;22.76;79.68
78990;BME280;68390;52.130;21.218;2023-08-06T07:08:14;98779.75;;;22.86;80.68
78990;BME280;68390;52.130;21.218;2023-08-06T07:10:41;98773.50;;;22.99;78.87
78990;BME280;68390;52.130;21.218;2023-08-06T07:13:06;98777.66;;;23.06;79.01
78990;BME280;68390;52.130;21.218;2023-08-06T07:15:32;98781.50;;;23.16;78.35
78990;BME280;68390;52.130;21.218;2023-08-06T07:17:57;98781.47;;;23.21;79.51
78990;BME280;68390;52.130;21.218;2023-08-06T07:20:23;98778.38;;;23.22;78.85
78990;BME280;68390;52.130;21.218;2023-08-06T07:22:48;98771.03;;;23.26;78.01
78990;BME280;68390;52.130;21.218;2023-08-06T07:25:15;98767.09;;;23.32;77.88
78990;BME280;68390;52.130;21.218;2023-08-06T07:27:41;98768.66;;;23.43;76.61
78990;BME280;68390;52.130;21.218;2023-08-06T07:30:07;98774.50;;;23.52;76.15
78990;BME280;68390;52.130;21.218;2023-08-06T07:32:32;98771.88;;;23.61;77.47
78990;BME280;68390;52.130;21.218;2023-08-06T07:34:58;98772.34;;;23.73;76.45
78990;BME280;68390;52.130;21.218;2023-08-06T07:37:25;98765.78;;;23.83;75.05
78990;BME280;68390;52.130;21.218;2023-08-06T07:39:50;98768.19;;;23.94;75.56
78990;BME280;68390;52.130;21.218;2023-08-06T07:42:15;98757.69;;;24.05;75.80
78990;BME280;68390;52.130;21.218;2023-08-06T07:44:41;98753.91;;;24.14;75.75
78990;BME280;68390;52.130;21.218;2023-08-06T07:47:06;98758.88;;;24.23;73.05
78990;BME280;68390;52.130;21.218;2023-08-06T07:49:31;98757.47;;;24.25;72.47
78990;BME280;68390;52.130;21.218;2023-08-06T07:51:57;98762.16;;;24.30;73.43
78990;BME280;68390;52.130;21.218;2023-08-06T07:54:22;98759.59;;;24.33;72.93
78990;BME280;68390;52.130;21.218;2023-08-06T07:56:49;98750.81;;;24.40;73.30
78990;BME280;68390;52.130;21.218;2023-08-06T07:59:14;98743.09;;;24.50;73.07
78990;BME280;68390;52.130;21.218;2023-08-06T08:01:40;98744.09;;;24.60;72.94
78990;BME280;68390;52.130;21.218;2023-08-06T08:04:05;98737.81;;;24.68;71.18
78990;BME280;68390;52.130;21.218;2023-08-06T08:06:31;98743.03;;;24.74;72.65
78990;BME280;68390;52.130;21.218;2023-08-06T08:08:56;98744.53;;;24.85;72.88
78990;BME280;68390;52.130;21.218;2023-08-06T08:11:21;98737.13;;;24.95;69.54
78990;BME280;68390;52.130;21.218;2023-08-06T08:13:47;98742.59;;;25.05;71.18
78990;BME280;68390;52.130;21.218;2023-08-06T08:16:12;98728.38;;;25.15;70.54
78990;BME280;68390;52.130;21.218;2023-08-06T08:18:38;98732.06;;;25.29;69.87
78990;BME280;68390;52.130;21.218;2023-08-06T08:21:03;98738.13;;;25.36;67.58
78990;BME280;68390;52.130;21.218;2023-08-06T08:23:28;98732.97;;;25.43;67.98
78990;BME280;68390;52.130;21.218;2023-08-06T08:25:54;98724.19;;;25.45;67.19
78990;BME280;68390;52.130;21.218;2023-08-06T08:28:19;98722.16;;;25.50;67.38
78990;BME280;68390;52.130;21.218;2023-08-06T08:30:45;98728.50;;;25.56;66.75
78990;BME280;68390;52.130;21.218;2023-08-06T08:33:10;98730.69;;;25.59;67.19
78990;BME280;68390;52.130;21.218;2023-08-06T08:35:36;98724.69;;;25.66;67.80
78990;BME280;68390;52.130;21.218;2023-08-06T08:38:01;98732.63;;;25.64;66.26
78990;BME280;68390;52.130;21.218;2023-08-06T08:40:32;98731.84;;;25.58;66.53
78990;BME280;68390;52.130;21.218;2023-08-06T08:42:58;98717.19;;;25.61;66.95
78990;BME280;68390;52.130;21.218;2023-08-06T08:45:26;98717.72;;;25.77;66.17
78990;BME280;68390;52.130;21.218;2023-08-06T08:47:53;98717.84;;;25.85;65.94
78990;BME280;68390;52.130;21.218;2023-08-06T08:50:19;98725.91;;;26.06;65.34
78990;BME280;68390;52.130;21.218;2023-08-06T08:52:45;98717.34;;;26.24;64.26
78990;BME280;68390;52.130;21.218;2023-08-06T08:55:12;98712.97;;;26.32;64.09
78990;BME280;68390;52.130;21.218;2023-08-06T08:57:38;98701.59;;;26.37;63.10
78990;BME280;68390;52.130;21.218;2023-08-06T09:00:04;98702.75;;;26.36;64.56
78990;BME280;68390;52.130;21.218;2023-08-06T09:02:32;98700.13;;;26.40;62.90
78990;BME280;68390;52.130;21.218;2023-08-06T09:04:59;98691.69;;;26.40;62.87
78990;BME280;68390;52.130;21.218;2023-08-06T09:07:29;98701.97;;;26.58;62.31
78990;BME280;68390;52.130;21.218;2023-08-06T09:09:57;98701.38;;;26.83;61.72
78990;BME280;68390;52.130;21.218;2023-08-06T09:12:24;98698.28;;;27.07;60.84
78990;BME280;68390;52.130;21.218;2023-08-06T09:14:49;98699.50;;;27.37;59.53
78990;BME280;68390;52.130;21.218;2023-08-06T09:17:16;98679.22;;;27.57;60.39
78990;BME280;68390;52.130;21.218;2023-08-06T09:19:45;98680.75;;;27.63;57.92
78990;BME280;68390;52.130;21.218;2023-08-06T09:22:13;98696.41;;;27.47;58.97
78990;BME280;68390;52.130;21.218;2023-08-06T09:24:42;98692.66;;;27.29;57.94
78990;BME280;68390;52.130;21.218;2023-08-06T09:27:11;98690.59;;;27.21;59.78
78990;BME280;68390;52.130;21.218;2023-08-06T09:29:43;98677.00;;;27.23;60.32
78990;BME280;68390;52.130;21.218;2023-08-06T09:32:13;98672.13;;;27.60;61.11
78990;BME280;68390;52.130;21.218;2023-08-06T09:34:39;98674.72;;;27.87;57.15
78990;BME280;68390;52.130;21.218;2023-08-06T09:37:04;98664.47;;;28.00;57.67
78990;BME280;68390;52.130;21.218;2023-08-06T09:39:30;98672.00;;;28.13;58.39
78990;BME280;68390;52.130;21.218;2023-08-06T09:42:02;98679.78;;;28.16;55.68
78990;BME280;68390;52.130;21.218;2023-08-06T09:44:30;98671.78;;;28.01;55.70
78990;BME280;68390;52.130;21.218;2023-08-06T09:46:58;98670.63;;;28.02;56.60
78990;BME280;68390;52.130;21.218;2023-08-06T09:51:59;98653.28;;;28.26;54.60
78990;BME280;68390;52.130;21.218;2023-08-06T09:54:26;98655.13;;;28.39;55.09
78990;BME280;68390;52.130;21.218;2023-08-06T09:56:53;98646.53;;;28.44;54.23
78990;BME280;68390;52.130;21.218;2023-08-06T09:59:18;98643.84;;;28.56;54.42
78990;BME280;68390;52.130;21.218;2023-08-06T10:01:45;98639.72;;;28.71;54.81
78990;BME280;68390;52.130;21.218;2023-08-06T10:04:12;98641.06;;;28.91;54.12
78990;BME280;68390;52.130;21.218;2023-08-06T10:06:42;98633.56;;;29.12;54.69
78990;BME280;68390;52.130;21.218;2023-08-06T10:09:07;98629.03;;;29.19;53.01
78990;BME280;68390;52.130;21.218;2023-08-06T10:11:34;98624.03;;;29.34;51.05
78990;BME280;68390;52.130;21.218;2023-08-06T10:14:15;98627.72;;;29.17;51.28
78990;BME280;68390;52.130;21.218;2023-08-06T10:16:42;98611.56;;;29.26;49.22
78990;BME280;68390;52.130;21.218;2023-08-06T10:19:10;98623.84;;;29.30;48.99
78990;BME280;68390;52.130;21.218;2023-08-06T10:21:39;98615.06;;;29.23;49.64
78990;BME280;68390;52.130;21.218;2023-08-06T10:24:08;98611.44;;;29.14;50.71
78990;BME280;68390;52.130;21.218;2023-08-06T10:26:36;98612.47;;;28.92;51.75
78990;BME280;68390;52.130;21.218;2023-08-06T10:29:35;98612.41;;;29.27;50.73
78990;BME280;68390;52.130;21.218;2023-08-06T10:32:00;98609.38;;;29.32;49.67
78990;BME280;68390;52.130;21.218;2023-08-06T10:37:24;98603.56;;;29.28;48.46
78990;BME280;68390;52.130;21.218;2023-08-06T10:39:51;98594.47;;;29.14;48.59
78990;BME280;68390;52.130;21.218;2023-08-06T10:42:27;98590.16;;;28.99;51.45
78990;BME280;68390;52.130;21.218;2023-08-06T10:45:19;98597.03;;;28.81;49.24
78990;BME280;68390;52.130;21.218;2023-08-06T10:47:45;98590.22;;;28.65;50.22
78990;BME280;68390;52.130;21.218;2023-08-06T10:50:17;98591.84;;;28.48;50.18
78990;BME280;68390;52.130;21.218;2023-08-06T10:52:46;98585.88;;;28.59;50.08
78990;BME280;68390;52.130;21.218;2023-08-06T10:55:12;98574.25;;;28.86;49.41
78990;BME280;68390;52.130;21.218;2023-08-06T10:57:38;98568.72;;;28.98;50.24
78990;BME280;68390;52.130;21.218;2023-08-06T11:00:05;98579.88;;;28.95;51.55
78990;BME280;68390;52.130;21.218;2023-08-06T11:02:35;98570.75;;;28.80;51.12
78990;BME280;68390;52.130;21.218;2023-08-06T11:05:08;98566.78;;;28.64;50.56
78990;BME280;68390;52.130;21.218;2023-08-06T11:07:34;98561.97;;;28.82;51.34
78990;BME280;68390;52.130;21.218;2023-08-06T11:10:10;98549.28;;;29.05;49.10
78990;BME280;68390;52.130;21.218;2023-08-06T11:12:36;98545.22;;;29.24;49.31
78990;BME280;68390;52.130;21.218;2023-08-06T11:15:03;98538.19;;;29.38;47.65
78990;BME280;68390;52.130;21.218;2023-08-06T11:17:30;98532.53;;;29.30;48.10
78990;BME280;68390;52.130;21.218;2023-08-06T11:19:56;98542.69;;;29.31;49.22
78990;BME280;68390;52.130;21.218;2023-08-06T11:22:24;98528.72;;;29.34;48.90
78990;BME280;68390;52.130;21.218;2023-08-06T11:24:49;98538.72;;;29.23;47.94
78990;BME280;68390;52.130;21.218;2023-08-06T11:27:15;98525.03;;;29.34;46.18
78990;BME280;68390;52.130;21.218;2023-08-06T11:29:41;98522.72;;;29.36;47.15
78990;BME280;68390;52.130;21.218;2023-08-06T11:32:08;98529.53;;;29.35;46.95
78990;BME280;68390;52.130;21.218;2023-08-06T11:34:34;98524.25;;;29.25;47.06
78990;BME280;68390;52.130;21.218;2023-08-06T11:37:06;98517.00;;;29.06;47.88
78990;BME280;68390;52.130;21.218;2023-08-06T11:39:36;98527.16;;;28.99;47.87
78990;BME280;68390;52.130;21.218;2023-08-06T11:42:07;98511.41;;;28.89;49.39
78990;BME280;68390;52.130;21.218;2023-08-06T11:44:35;98515.75;;;28.78;48.37
78990;BME280;68390;52.130;21.218;2023-08-06T11:47:02;98521.56;;;28.81;48.87
78990;BME280;68390;52.130;21.218;2023-08-06T11:52:13;98504.50;;;29.07;49.54
78990;BME280;68390;52.130;21.218;2023-08-06T11:54:39;98505.34;;;29.16;49.03
78990;BME280;68390;52.130;21.218;2023-08-06T11:57:08;98493.66;;;29.27;48.03
78990;BME280;68390;52.130;21.218;2023-08-06T11:59:33;98470.97;;;29.44;48.50
78990;BME280;68390;52.130;21.218;2023-08-06T12:02:08;98484.03;;;29.57;46.71
78990;BME280;68390;52.130;21.218;2023-08-06T12:04:57;98486.94;;;29.40;46.53
78990;BME280;68390;52.130;21.218;2023-08-06T12:07:27;98495.66;;;29.17;48.63
78990;BME280;68390;52.130;21.218;2023-08-06T12:09:52;98493.13;;;28.95;48.83
78990;BME280;68390;52.130;21.218;2023-08-06T12:12:17;98499.28;;;28.80;50.07
78990;BME280;68390;52.130;21.218;2023-08-06T12:14:42;98497.00;;;28.65;48.88
78990;BME280;68390;52.130;21.218;2023-08-06T12:17:08;98492.84;;;28.54;49.63
78990;BME280;68390;52.130;21.218;2023-08-06T12:19:33;98492.69;;;28.41;50.34
78990;BME280;68390;52.130;21.218;2023-08-06T12:21:59;98488.22;;;28.32;50.77
78990;BME280;68390;52.130;21.218;2023-08-06T12:24:24;98493.72;;;28.20;51.99
78990;BME280;68390;52.130;21.218;2023-08-06T12:26:49;98493.34;;;28.12;51.23
78990;BME280;68390;52.130;21.218;2023-08-06T12:29:15;98500.63;;;28.05;51.03
78990;BME280;68390;52.130;21.218;2023-08-06T12:31:40;98498.31;;;27.98;50.34
78990;BME280;68390;52.130;21.218;2023-08-06T12:34:05;98514.59;;;27.93;50.56
78990;BME280;68390;52.130;21.218;2023-08-06T12:36:31;98504.59;;;27.87;50.90
78990;BME280;68390;52.130;21.218;2023-08-06T12:38:56;98489.34;;;27.79;51.02
78990;BME280;68390;52.130;21.218;2023-08-06T12:41:21;98479.22;;;27.69;52.78
78990;BME280;68390;52.130;21.218;2023-08-06T12:43:47;98479.53;;;27.59;52.61
78990;BME280;68390;52.130;21.218;2023-08-06T12:46:12;98493.13;;;27.57;51.51
78990;BME280;68390;52.130;21.218;2023-08-06T12:48:38;98487.09;;;27.50;52.25
78990;BME280;68390;52.130;21.218;2023-08-06T12:51:04;98484.44;;;27.45;52.57
78990;BME280;68390;52.130;21.218;2023-08-06T12:53:30;98486.06;;;27.37;52.63